images/hfc/images/print_logo.png
Drucken
[Quelle: ADDS]
METAR
EDDW 202320Z 26003KT 230V300 CAVOK 06/01 Q1016 =
TAF
AMD EDDW 202031Z 2020/2118 36010KT CAVOK BECMG 2021/2023 31003KT BECMG 2106/2108 30008KT BECMG 2109/2111 32013KT PROB30 TEMPO 2110/2112 BKN012 TEMPO 2111/2117 33015G25KT =
BCMT / ECET: 03:30 / 19:17 UTC (EDDW 2021-04-21)

printlogo=no